KAUM/AUM METAR and TAF weather

Enter ICAO airport designator
Station Type Date Time Source
KAUM METAR 2019/12/06 03:55 UTC NOAA

KAUM 060355Z AUTO 33014KT 10SM CLR 01/M01 A3004 RMK AO2


Station Type Date Time Source
KAUM Decoded METAR 2019/12/06 03:55 UTC NOAA

Austin Municipal, MN, United States (KAUM) 43-40N 092-56W
Dec 05, 2019 - 10:55 PM EST / 2019.12.06 0355 UTC
Wind: from the NNW (330 degrees) at 16 MPH (14 KT):0
Visibility: 10 mile(s):0
Sky conditions: clear
Temperature: 33 F (1 C)
Windchill: 23 F (-5 C):1
Dew Point: 30 F (-1 C)
Relative Humidity: 86%
Pressure (altimeter): 30.04 in. Hg (1017 hPa)
ob: KAUM 060355Z AUTO 33014KT 10SM CLR 01/M01 A3004 RMK AO2
cycle: 4

Station Type Date Time Source
KAUM TAF UTC NOAA

Error!

Example: see airport list